Time;durP1;ratioP1;P1;durP2;ratioP2;P2;SDS_P1;SDS_P2;PMS_P1;PMS_P2;Temp;Humidity;BMP_temperature;BMP_pressure;BME280_temperature;BME280_humidity;BME280_pressure;Samples;Min_cycle;Max_cycle;Signal;HPM_P1;HPM_P2
2020/12/12 00:00:28;;;;;;;6.07;5.47;;;7.4;99.9;;;;;;;;;
2020/12/12 00:01:02;;;;;;;6.07;5.47;;;7.4;99.9;;;;;;;;;
2020/12/12 00:02:02;;;;;;;5.9;5.3;;;7.4;99.9;;;;;;;;;
2020/12/12 00:02:41;;;;;;;6.43;5.87;;;7.4;99.9;;;;;;;;;
2020/12/12 00:03:02;;;;;;;6.43;5.87;;;7.4;99.9;;;;;;;;;
2020/12/12 00:03:12;;;;;;;6.43;5.87;;;7.4;99.9;;;;;;;;;
2020/12/12 00:04:02;;;;;;;6.9;6.23;;;7.5;99.9;;;;;;;;;
2020/12/12 00:04:13;;;;;;;6.9;6.23;;;7.5;99.9;;;;;;;;;
2020/12/12 00:04:54;;;;;;;6.47;5.7;;;7.6;99.9;;;;;;;;;
2020/12/12 00:05:02;;;;;;;6.47;5.7;;;7.6;99.9;;;;;;;;;
2020/12/12 00:05:15;;;;;;;6.47;5.7;;;7.6;99.9;;;;;;;;;
2020/12/12 00:05:25;;;;;;;6.47;5.7;;;7.6;99.9;;;;;;;;;
2020/12/12 00:06:02;;;;;;;6.03;5.43;;;7.6;99.9;;;;;;;;;
2020/12/12 00:06:17;;;;;;;6.03;5.43;;;7.6;99.9;;;;;;;;;
2020/12/12 00:06:27;;;;;;;6.03;5.43;;;7.6;99.9;;;;;;;;;
2020/12/12 00:07:02;;;;;;;6.87;6.17;;;7.5;99.9;;;;;;;;;
2020/12/12 00:07:08;;;;;;;6.87;6.17;;;7.5;99.9;;;;;;;;;
2020/12/12 00:07:13;;;;;;;6.87;6.17;;;7.5;99.9;;;;;;;;;
2020/12/12 00:07:28;;;;;;;6.87;6.17;;;7.5;99.9;;;;;;;;;
2020/12/12 00:07:38;;;;;;;6.93;6.23;;;7.5;99.9;;;;;;;;;
2020/12/12 00:08:02;;;;;;;6.93;6.23;;;7.5;99.9;;;;;;;;;
2020/12/12 00:08:14;;;;;;;6.93;6.23;;;7.5;99.9;;;;;;;;;
2020/12/12 00:08:35;;;;;;;6.83;6.13;;;7.4;99.9;;;;;;;;;
2020/12/12 00:08:40;;;;;;;6.83;6.13;;;7.4;99.9;;;;;;;;;
2020/12/12 00:09:02;;;;;;;6.83;6.13;;;7.4;99.9;;;;;;;;;
2020/12/12 00:09:16;;;;;;;6.83;6.13;;;7.4;99.9;;;;;;;;;
2020/12/12 00:09:26;;;;;;;6.83;6.13;;;7.4;99.9;;;;;;;;;
2020/12/12 00:09:41;;;;;;;6.3;5.7;;;7.3;99.9;;;;;;;;;
2020/12/12 00:09:51;;;;;;;6.3;5.7;;;7.3;99.9;;;;;;;;;
2020/12/12 00:10:01;;;;;;;6.3;5.7;;;7.3;99.9;;;;;;;;;
2020/12/12 00:10:12;;;;;;;6.3;5.7;;;7.3;99.9;;;;;;;;;
2020/12/12 00:10:27;;;;;;;6.3;5.7;;;7.3;99.9;;;;;;;;;
2020/12/12 00:10:48;;;;;;;6.6;5.9;;;7.4;99.9;;;;;;;;;
2020/12/12 00:10:53;;;;;;;6.6;5.9;;;7.4;99.9;;;;;;;;;
2020/12/12 00:11:01;;;;;;;6.6;5.9;;;7.4;99.9;;;;;;;;;
2020/12/12 00:11:13;;;;;;;6.6;5.9;;;7.4;99.9;;;;;;;;;
2020/12/12 00:11:29;;;;;;;6.6;5.9;;;7.4;99.9;;;;;;;;;
2020/12/12 00:11:39;;;;;;;5.93;5.33;;;7.5;99.9;;;;;;;;;
2020/12/12 00:11:54;;;;;;;5.93;5.33;;;7.5;99.9;;;;;;;;;
2020/12/12 00:12:01;;;;;;;5.93;5.33;;;7.5;99.9;;;;;;;;;
2020/12/12 00:12:05;;;;;;;5.93;5.33;;;7.5;99.9;;;;;;;;;
2020/12/12 00:12:15;;;;;;;5.93;5.33;;;7.5;99.9;;;;;;;;;
2020/12/12 00:12:25;;;;;;;5.93;5.33;;;7.5;99.9;;;;;;;;;
2020/12/12 00:12:41;;;;;;;6.67;6;;;7.6;99.9;;;;;;;;;
2020/12/12 00:13:01;;;;;;;6.67;6;;;7.6;99.9;;;;;;;;;
2020/12/12 00:13:01;;;;;;;6.67;6;;;7.6;99.9;;;;;;;;;
2020/12/12 00:13:07;;;;;;;6.67;6;;;7.6;99.9;;;;;;;;;
2020/12/12 00:13:16;;;;;;;6.67;6;;;7.6;99.9;;;;;;;;;
2020/12/12 00:13:26;;;;;;;6.67;6;;;7.6;99.9;;;;;;;;;
2020/12/12 00:13:42;;;;;;;6.2;5.6;;;7.6;99.9;;;;;;;;;
2020/12/12 00:13:52;;;;;;;6.2;5.6;;;7.6;99.9;;;;;;;;;
2020/12/12 00:14:01;;;;;;;6.2;5.6;;;7.6;99.9;;;;;;;;;
2020/12/12 00:14:07;;;;;;;6.2;5.6;;;7.6;99.9;;;;;;;;;
2020/12/12 00:14:13;;;;;;;6.2;5.6;;;7.6;99.9;;;;;;;;;
2020/12/12 00:14:28;;;;;;;6.2;5.6;;;7.6;99.9;;;;;;;;;
2020/12/12 00:14:38;;;;;;;6.03;5.47;;;7.7;99.9;;;;;;;;;
2020/12/12 00:14:54;;;;;;;6.03;5.47;;;7.7;99.9;;;;;;;;;
2020/12/12 00:15:01;;;;;;;6.03;5.47;;;7.7;99.9;;;;;;;;;
2020/12/12 00:15:14;;;;;;;6.03;5.47;;;7.7;99.9;;;;;;;;;
2020/12/12 00:15:14;;;;;;;6.03;5.47;;;7.7;99.9;;;;;;;;;
2020/12/12 00:15:29;;;;;;;6.03;5.47;;;7.7;99.9;;;;;;;;;
2020/12/12 00:15:40;;;;;;;6.6;5.57;;;7.7;99.9;;;;;;;;;
2020/12/12 00:15:55;;;;;;;6.6;5.57;;;7.7;99.9;;;;;;;;;
2020/12/12 00:16:02;;;;;;;6.6;5.57;;;7.7;99.9;;;;;;;;;
2020/12/12 00:16:06;;;;;;;6.6;5.57;;;7.7;99.9;;;;;;;;;
2020/12/12 00:16:15;;;;;;;6.6;5.57;;;7.7;99.9;;;;;;;;;
2020/12/12 00:16:26;;;;;;;6.6;5.57;;;7.7;99.9;;;;;;;;;
2020/12/12 00:16:41;;;;;;;6.7;6;;;7.6;99.9;;;;;;;;;
2020/12/12 00:16:51;;;;;;;6.7;6;;;7.6;99.9;;;;;;;;;
2020/12/12 00:17:02;;;;;;;6.7;6;;;7.6;99.9;;;;;;;;;
2020/12/12 00:17:07;;;;;;;6.7;6;;;7.6;99.9;;;;;;;;;
2020/12/12 00:17:12;;;;;;;6.7;6;;;7.6;99.9;;;;;;;;;
2020/12/12 00:17:27;;;;;;;6.7;6;;;7.6;99.9;;;;;;;;;
2020/12/12 00:17:42;;;;;;;7.17;6.47;;;7.6;99.9;;;;;;;;;
2020/12/12 00:17:53;;;;;;;7.17;6.47;;;7.6;99.9;;;;;;;;;
2020/12/12 00:18:02;;;;;;;7.17;6.47;;;7.6;99.9;;;;;;;;;
2020/12/12 00:18:08;;;;;;;7.17;6.47;;;7.6;99.9;;;;;;;;;
2020/12/12 00:18:13;;;;;;;7.17;6.47;;;7.6;99.9;;;;;;;;;
2020/12/12 00:18:29;;;;;;;7.17;6.47;;;7.6;99.9;;;;;;;;;
2020/12/12 00:18:39;;;;;;;6.37;5.7;;;7.6;99.9;;;;;;;;;
2020/12/12 00:18:54;;;;;;;6.37;5.7;;;7.6;99.9;;;;;;;;;
2020/12/12 00:19:02;;;;;;;6.37;5.7;;;7.6;99.9;;;;;;;;;
2020/12/12 00:19:04;;;;;;;6.37;5.7;;;7.6;99.9;;;;;;;;;
2020/12/12 00:19:15;;;;;;;6.37;5.7;;;7.6;99.9;;;;;;;;;
2020/12/12 00:19:25;;;;;;;6.37;5.7;;;7.6;99.9;;;;;;;;;
2020/12/12 00:19:40;;;;;;;6.5;5.8;;;7.6;99.9;;;;;;;;;
2020/12/12 00:19:56;;;;;;;6.5;5.8;;;7.6;99.9;;;;;;;;;
2020/12/12 00:20:01;;;;;;;6.5;5.8;;;7.6;99.9;;;;;;;;;
2020/12/12 00:20:06;;;;;;;6.5;5.8;;;7.6;99.9;;;;;;;;;
2020/12/12 00:20:16;;;;;;;6.5;5.8;;;7.6;99.9;;;;;;;;;
2020/12/12 00:20:26;;;;;;;6.5;5.8;;;7.6;99.9;;;;;;;;;
2020/12/12 00:20:42;;;;;;;6.97;6.27;;;7.7;99.9;;;;;;;;;
2020/12/12 00:20:52;;;;;;;6.97;6.27;;;7.7;99.9;;;;;;;;;
2020/12/12 00:21:02;;;;;;;6.97;6.27;;;7.7;99.9;;;;;;;;;
2020/12/12 00:21:07;;;;;;;6.97;6.27;;;7.7;99.9;;;;;;;;;
2020/12/12 00:21:12;;;;;;;6.97;6.27;;;7.7;99.9;;;;;;;;;
2020/12/12 00:21:28;;;;;;;6.97;6.27;;;7.7;99.9;;;;;;;;;
2020/12/12 00:21:38;;;;;;;6.23;5.4;;;7.5;99.9;;;;;;;;;
2020/12/12 00:21:53;;;;;;;6.23;5.4;;;7.5;99.9;;;;;;;;;
2020/12/12 00:22:02;;;;;;;6.23;5.4;;;7.5;99.9;;;;;;;;;
2020/12/12 00:22:09;;;;;;;6.23;5.4;;;7.5;99.9;;;;;;;;;
2020/12/12 00:22:14;;;;;;;6.23;5.4;;;7.5;99.9;;;;;;;;;
2020/12/12 00:22:29;;;;;;;6.23;5.4;;;7.5;99.9;;;;;;;;;
2020/12/12 00:22:39;;;;;;;6.4;5.8;;;7.6;99.9;;;;;;;;;
2020/12/12 00:22:55;;;;;;;6.4;5.8;;;7.6;99.9;;;;;;;;;
2020/12/12 00:23:02;;;;;;;6.4;5.8;;;7.6;99.9;;;;;;;;;
2020/12/12 00:23:05;;;;;;;6.4;5.8;;;7.6;99.9;;;;;;;;;
2020/12/12 00:23:15;;;;;;;6.4;5.8;;;7.6;99.9;;;;;;;;;
2020/12/12 00:23:25;;;;;;;6.4;5.8;;;7.6;99.9;;;;;;;;;
2020/12/12 00:23:41;;;;;;;6.57;5.9;;;7.7;99.9;;;;;;;;;
2020/12/12 00:23:51;;;;;;;6.57;5.9;;;7.7;99.9;;;;;;;;;
2020/12/12 00:24:02;;;;;;;6.57;5.9;;;7.7;99.9;;;;;;;;;
2020/12/12 00:24:06;;;;;;;6.57;5.9;;;7.7;99.9;;;;;;;;;
2020/12/12 00:24:17;;;;;;;6.57;5.9;;;7.7;99.9;;;;;;;;;
2020/12/12 00:24:27;;;;;;;6.57;5.9;;;7.7;99.9;;;;;;;;;
2020/12/12 00:24:42;;;;;;;6.87;6.1;;;7.7;99.9;;;;;;;;;
2020/12/12 00:24:52;;;;;;;6.87;6.1;;;7.7;99.9;;;;;;;;;
2020/12/12 00:25:01;;;;;;;6.87;6.1;;;7.7;99.9;;;;;;;;;
2020/12/12 00:25:09;;;;;;;6.87;6.1;;;7.7;99.9;;;;;;;;;
2020/12/12 00:25:13;;;;;;;6.87;6.1;;;7.7;99.9;;;;;;;;;
2020/12/12 00:25:28;;;;;;;6.87;6.1;;;7.7;99.9;;;;;;;;;
2020/12/12 00:25:39;;;;;;;6.17;5.53;;;7.6;99.9;;;;;;;;;
2020/12/12 00:25:54;;;;;;;6.17;5.53;;;7.6;99.9;;;;;;;;;
2020/12/12 00:26:02;;;;;;;6.17;5.53;;;7.6;99.9;;;;;;;;;
2020/12/12 00:26:04;;;;;;;6.17;5.53;;;7.6;99.9;;;;;;;;;
2020/12/12 00:26:14;;;;;;;6.17;5.53;;;7.6;99.9;;;;;;;;;
2020/12/12 00:26:30;;;;;;;6.17;5.53;;;7.6;99.9;;;;;;;;;
2020/12/12 00:26:40;;;;;;;5.87;5.37;;;7.5;99.9;;;;;;;;;
2020/12/12 00:26:55;;;;;;;5.87;5.37;;;7.5;99.9;;;;;;;;;
2020/12/12 00:27:02;;;;;;;5.87;5.37;;;7.5;99.9;;;;;;;;;
2020/12/12 00:27:06;;;;;;;5.87;5.37;;;7.5;99.9;;;;;;;;;
2020/12/12 00:27:16;;;;;;;5.87;5.37;;;7.5;99.9;;;;;;;;;
2020/12/12 00:27:26;;;;;;;5.87;5.37;;;7.5;99.9;;;;;;;;;
2020/12/12 00:27:42;;;;;;;6.07;5.47;;;7.6;99.9;;;;;;;;;
2020/12/12 00:27:52;;;;;;;6.07;5.47;;;7.6;99.9;;;;;;;;;
2020/12/12 00:28:02;;;;;;;6.07;5.47;;;7.6;99.9;;;;;;;;;
2020/12/12 00:28:07;;;;;;;6.07;5.47;;;7.6;99.9;;;;;;;;;
2020/12/12 00:28:17;;;;;;;6.07;5.47;;;7.6;99.9;;;;;;;;;
2020/12/12 00:28:28;;;;;;;6.07;5.47;;;7.6;99.9;;;;;;;;;
2020/12/12 00:28:43;;;;;;;5.6;4.83;;;7.7;99.9;;;;;;;;;
2020/12/12 00:28:53;;;;;;;5.6;4.83;;;7.7;99.9;;;;;;;;;
2020/12/12 00:29:02;;;;;;;5.6;4.83;;;7.7;99.9;;;;;;;;;
2020/12/12 00:29:09;;;;;;;5.6;4.83;;;7.7;99.9;;;;;;;;;
2020/12/12 00:29:14;;;;;;;5.6;4.83;;;7.7;99.9;;;;;;;;;
2020/12/12 00:29:29;;;;;;;5.6;4.83;;;7.7;99.9;;;;;;;;;
2020/12/12 00:29:39;;;;;;;5.83;5.23;;;7.8;99.9;;;;;;;;;
2020/12/12 00:29:55;;;;;;;5.83;5.23;;;7.8;99.9;;;;;;;;;
2020/12/12 00:30:01;;;;;;;5.83;5.23;;;7.8;99.9;;;;;;;;;
2020/12/12 00:30:05;;;;;;;5.83;5.23;;;7.8;99.9;;;;;;;;;
2020/12/12 00:30:15;;;;;;;5.83;5.23;;;7.8;99.9;;;;;;;;;
2020/12/12 00:30:31;;;;;;;5.83;5.23;;;7.8;99.9;;;;;;;;;
2020/12/12 00:30:41;;;;;;;6.27;5.67;;;7.8;99.9;;;;;;;;;
2020/12/12 00:30:56;;;;;;;6.27;5.67;;;7.8;99.9;;;;;;;;;
2020/12/12 00:31:02;;;;;;;6.27;5.67;;;7.8;99.9;;;;;;;;;
2020/12/12 00:31:06;;;;;;;6.27;5.67;;;7.8;99.9;;;;;;;;;
2020/12/12 00:31:17;;;;;;;6.27;5.67;;;7.8;99.9;;;;;;;;;
2020/12/12 00:31:27;;;;;;;6.27;5.67;;;7.8;99.9;;;;;;;;;
2020/12/12 00:31:42;;;;;;;5.33;4.8;;;7.8;99.9;;;;;;;;;
2020/12/12 00:31:52;;;;;;;5.33;4.8;;;7.8;99.9;;;;;;;;;
2020/12/12 00:32:01;;;;;;;5.33;4.8;;;7.8;99.9;;;;;;;;;
2020/12/12 00:32:08;;;;;;;5.33;4.8;;;7.8;99.9;;;;;;;;;
2020/12/12 00:32:13;;;;;;;5.33;4.8;;;7.8;99.9;;;;;;;;;
2020/12/12 00:32:28;;;;;;;5.33;4.8;;;7.8;99.9;;;;;;;;;
2020/12/12 00:32:44;;;;;;;6.27;5.67;;;7.8;99.9;;;;;;;;;
2020/12/12 00:32:54;;;;;;;6.27;5.67;;;7.8;99.9;;;;;;;;;
2020/12/12 00:33:02;;;;;;;6.27;5.67;;;7.8;99.9;;;;;;;;;
2020/12/12 00:33:09;;;;;;;6.27;5.67;;;7.8;99.9;;;;;;;;;
2020/12/12 00:33:14;;;;;;;6.27;5.67;;;7.8;99.9;;;;;;;;;
2020/12/12 00:33:30;;;;;;;6.27;5.67;;;7.8;99.9;;;;;;;;;
2020/12/12 00:33:40;;;;;;;5.63;5.07;;;7.9;99.9;;;;;;;;;
2020/12/12 00:33:55;;;;;;;5.63;5.07;;;7.9;99.9;;;;;;;;;
2020/12/12 00:34:02;;;;;;;5.63;5.07;;;7.9;99.9;;;;;;;;;
2020/12/12 00:34:06;;;;;;;5.63;5.07;;;7.9;99.9;;;;;;;;;
2020/12/12 00:34:16;;;;;;;5.63;5.07;;;7.9;99.9;;;;;;;;;
2020/12/12 00:34:26;;;;;;;5.63;5.07;;;7.9;99.9;;;;;;;;;
2020/12/12 00:34:41;;;;;;;6.13;5.57;;;7.9;99.9;;;;;;;;;
2020/12/12 00:34:57;;;;;;;6.13;5.57;;;7.9;99.9;;;;;;;;;
2020/12/12 00:35:01;;;;;;;6.13;5.57;;;7.9;99.9;;;;;;;;;
2020/12/12 00:35:07;;;;;;;6.13;5.57;;;7.9;99.9;;;;;;;;;
2020/12/12 00:35:12;;;;;;;6.13;5.57;;;7.9;99.9;;;;;;;;;
2020/12/12 00:35:27;;;;;;;6.13;5.57;;;7.9;99.9;;;;;;;;;
2020/12/12 00:35:43;;;;;;;6;5.4;;;7.7;99.9;;;;;;;;;
2020/12/12 00:35:53;;;;;;;6;5.4;;;7.7;99.9;;;;;;;;;
2020/12/12 00:36:02;;;;;;;6;5.4;;;7.7;99.9;;;;;;;;;
2020/12/12 00:36:09;;;;;;;6;5.4;;;7.7;99.9;;;;;;;;;
2020/12/12 00:36:14;;;;;;;6;5.4;;;7.7;99.9;;;;;;;;;
2020/12/12 00:36:29;;;;;;;6;5.4;;;7.7;99.9;;;;;;;;;
2020/12/12 00:36:39;;;;;;;6.33;5.77;;;7.6;99.9;;;;;;;;;
2020/12/12 00:36:54;;;;;;;6.33;5.77;;;7.6;99.9;;;;;;;;;
2020/12/12 00:37:02;;;;;;;6.33;5.77;;;7.6;99.9;;;;;;;;;
2020/12/12 00:37:10;;;;;;;6.33;5.77;;;7.6;99.9;;;;;;;;;
2020/12/12 00:37:18;;;;;;;6.33;5.77;;;7.6;99.9;;;;;;;;;
2020/12/12 00:37:25;;;;;;;6.33;5.77;;;7.6;99.9;;;;;;;;;
2020/12/12 00:37:41;;;;;;;6.17;5.57;;;7.6;99.9;;;;;;;;;
2020/12/12 00:37:56;;;;;;;6.17;5.57;;;7.6;99.9;;;;;;;;;
2020/12/12 00:38:02;;;;;;;6.17;5.57;;;7.6;99.9;;;;;;;;;
2020/12/12 00:38:06;;;;;;;6.17;5.57;;;7.6;99.9;;;;;;;;;
2020/12/12 00:38:16;;;;;;;6.17;5.57;;;7.6;99.9;;;;;;;;;
2020/12/12 00:38:27;;;;;;;6.17;5.57;;;7.6;99.9;;;;;;;;;
2020/12/12 00:38:42;;;;;;;5.7;5.17;;;7.6;99.9;;;;;;;;;
2020/12/12 00:38:52;;;;;;;5.7;5.17;;;7.6;99.9;;;;;;;;;
2020/12/12 00:39:02;;;;;;;5.7;5.17;;;7.6;99.9;;;;;;;;;
2020/12/12 00:39:08;;;;;;;5.7;5.17;;;7.6;99.9;;;;;;;;;
2020/12/12 00:39:13;;;;;;;5.7;5.17;;;7.6;99.9;;;;;;;;;
2020/12/12 00:39:28;;;;;;;5.7;5.17;;;7.6;99.9;;;;;;;;;
2020/12/12 00:39:38;;;;;;;5.7;5.17;;;7.6;99.9;;;;;;;;;
2020/12/12 00:39:54;;;;;;;7.17;5.93;;;7.6;99.9;;;;;;;;;
2020/12/12 00:40:02;;;;;;;7.17;5.93;;;7.6;99.9;;;;;;;;;
2020/12/12 00:40:09;;;;;;;7.17;5.93;;;7.6;99.9;;;;;;;;;
2020/12/12 00:40:19;;;;;;;7.17;5.93;;;7.6;99.9;;;;;;;;;
2020/12/12 00:40:30;;;;;;;7.17;5.93;;;7.6;99.9;;;;;;;;;
2020/12/12 00:40:40;;;;;;;7.17;5.93;;;7.6;99.9;;;;;;;;;
2020/12/12 00:40:56;;;;;;;6.4;5.8;;;7.7;99.9;;;;;;;;;
2020/12/12 00:41:02;;;;;;;6.4;5.8;;;7.7;99.9;;;;;;;;;
2020/12/12 00:41:05;;;;;;;6.4;5.8;;;7.7;99.9;;;;;;;;;
2020/12/12 00:41:16;;;;;;;6.4;5.8;;;7.7;99.9;;;;;;;;;
2020/12/12 00:41:26;;;;;;;6.4;5.8;;;7.7;99.9;;;;;;;;;
2020/12/12 00:41:41;;;;;;;5.7;5.1;;;7.8;99.9;;;;;;;;;
2020/12/12 00:41:51;;;;;;;5.7;5.1;;;7.8;99.9;;;;;;;;;
2020/12/12 00:42:01;;;;;;;5.7;5.1;;;7.8;99.9;;;;;;;;;
2020/12/12 00:42:07;;;;;;;5.7;5.1;;;7.8;99.9;;;;;;;;;
2020/12/12 00:42:12;;;;;;;5.7;5.1;;;7.8;99.9;;;;;;;;;
2020/12/12 00:42:32;;;;;;;5.7;5.1;;;7.8;99.9;;;;;;;;;
2020/12/12 00:42:43;;;;;;;5.5;5;;;7.7;99.9;;;;;;;;;
2020/12/12 00:42:53;;;;;;;5.5;5;;;7.7;99.9;;;;;;;;;
2020/12/12 00:43:02;;;;;;;5.5;5;;;7.7;99.9;;;;;;;;;
2020/12/12 00:43:08;;;;;;;5.5;5;;;7.7;99.9;;;;;;;;;
2020/12/12 00:43:13;;;;;;;5.5;5;;;7.7;99.9;;;;;;;;;
2020/12/12 00:43:29;;;;;;;5.5;5;;;7.7;99.9;;;;;;;;;
2020/12/12 00:43:39;;;;;;;5.5;5;;;7.7;99.9;;;;;;;;;
2020/12/12 00:43:54;;;;;;;5.63;5.13;;;7.7;99.9;;;;;;;;;
2020/12/12 00:44:02;;;;;;;5.63;5.13;;;7.7;99.9;;;;;;;;;
2020/12/12 00:44:05;;;;;;;5.63;5.13;;;7.7;99.9;;;;;;;;;
2020/12/12 00:44:15;;;;;;;5.63;5.13;;;7.7;99.9;;;;;;;;;
2020/12/12 00:44:26;;;;;;;5.63;5.13;;;7.7;99.9;;;;;;;;;
2020/12/12 00:44:47;;;;;;;5.4;4.9;;;7.7;99.9;;;;;;;;;
2020/12/12 00:44:56;;;;;;;5.4;4.9;;;7.7;99.9;;;;;;;;;
2020/12/12 00:45:01;;;;;;;5.4;4.9;;;7.7;99.9;;;;;;;;;
2020/12/12 00:45:06;;;;;;;5.4;4.9;;;7.7;99.9;;;;;;;;;
2020/12/12 00:45:16;;;;;;;5.4;4.9;;;7.7;99.9;;;;;;;;;
2020/12/12 00:45:26;;;;;;;5.4;4.9;;;7.7;99.9;;;;;;;;;
2020/12/12 00:45:42;;;;;;;5.73;5.17;;;7.7;99.9;;;;;;;;;
2020/12/12 00:45:52;;;;;;;5.73;5.17;;;7.7;99.9;;;;;;;;;
2020/12/12 00:46:02;;;;;;;5.73;5.17;;;7.7;99.9;;;;;;;;;
2020/12/12 00:46:07;;;;;;;5.73;5.17;;;7.7;99.9;;;;;;;;;
2020/12/12 00:46:18;;;;;;;5.73;5.17;;;7.7;99.9;;;;;;;;;
2020/12/12 00:46:28;;;;;;;5.73;5.17;;;7.7;99.9;;;;;;;;;
2020/12/12 00:46:38;;;;;;;5.73;5.17;;;7.7;99.9;;;;;;;;;
2020/12/12 00:46:59;;;;;;;6.03;5.37;;;7.6;99.9;;;;;;;;;
2020/12/12 00:47:01;;;;;;;6.03;5.37;;;7.6;99.9;;;;;;;;;
2020/12/12 00:47:09;;;;;;;6.03;5.37;;;7.6;99.9;;;;;;;;;
2020/12/12 00:47:14;;;;;;;6.03;5.37;;;7.6;99.9;;;;;;;;;
2020/12/12 00:47:29;;;;;;;6.03;5.37;;;7.6;99.9;;;;;;;;;
2020/12/12 00:47:40;;;;;;;6.03;5.37;;;7.6;99.9;;;;;;;;;
2020/12/12 00:48:00;;;;;;;6.13;5.53;;;7.6;99.9;;;;;;;;;
2020/12/12 00:48:02;;;;;;;6.13;5.53;;;7.6;99.9;;;;;;;;;
2020/12/12 00:48:05;;;;;;;6.13;5.53;;;7.6;99.9;;;;;;;;;
2020/12/12 00:48:15;;;;;;;6.13;5.53;;;7.6;99.9;;;;;;;;;
2020/12/12 00:48:31;;;;;;;6.13;5.53;;;7.6;99.9;;;;;;;;;
2020/12/12 00:48:41;;;;;;;6.13;5.53;;;7.6;99.9;;;;;;;;;
2020/12/12 00:48:51;;;;;;;5.8;5.2;;;7.7;99.9;;;;;;;;;
2020/12/12 00:49:02;;;;;;;5.8;5.2;;;7.7;99.9;;;;;;;;;
2020/12/12 00:49:12;;;;;;;5.8;5.2;;;7.7;99.9;;;;;;;;;
2020/12/12 00:49:17;;;;;;;5.8;5.2;;;7.7;99.9;;;;;;;;;
2020/12/12 00:49:27;;;;;;;5.8;5.2;;;7.7;99.9;;;;;;;;;
2020/12/12 00:49:42;;;;;;;5.8;5.2;;;7.7;99.9;;;;;;;;;
2020/12/12 00:49:53;;;;;;;7.2;5.87;;;7.8;99.9;;;;;;;;;
2020/12/12 00:50:02;;;;;;;7.2;5.87;;;7.8;99.9;;;;;;;;;
2020/12/12 00:50:13;;;;;;;7.2;5.87;;;7.8;99.9;;;;;;;;;
2020/12/12 00:50:13;;;;;;;7.2;5.87;;;7.8;99.9;;;;;;;;;
2020/12/12 00:50:29;;;;;;;7.2;5.87;;;7.8;99.9;;;;;;;;;
2020/12/12 00:50:44;;;;;;;6.7;6.1;;;7.8;99.9;;;;;;;;;
2020/12/12 00:50:54;;;;;;;6.7;6.1;;;7.8;99.9;;;;;;;;;
2020/12/12 00:51:02;;;;;;;6.7;6.1;;;7.8;99.9;;;;;;;;;
2020/12/12 00:51:04;;;;;;;6.7;6.1;;;7.8;99.9;;;;;;;;;
2020/12/12 00:51:15;;;;;;;6.7;6.1;;;7.8;99.9;;;;;;;;;
2020/12/12 00:51:30;;;;;;;6.7;6.1;;;7.8;99.9;;;;;;;;;
2020/12/12 00:51:40;;;;;;;6.7;6.1;;;7.8;99.9;;;;;;;;;
2020/12/12 00:51:56;;;;;;;6;5.4;;;7.8;99.9;;;;;;;;;
2020/12/12 00:52:01;;;;;;;6;5.4;;;7.8;99.9;;;;;;;;;
2020/12/12 00:52:06;;;;;;;6;5.4;;;7.8;99.9;;;;;;;;;
2020/12/12 00:52:16;;;;;;;6;5.4;;;7.8;99.9;;;;;;;;;
2020/12/12 00:52:26;;;;;;;6;5.4;;;7.8;99.9;;;;;;;;;
2020/12/12 00:52:42;;;;;;;6;5.4;;;7.8;99.9;;;;;;;;;
2020/12/12 00:52:57;;;;;;;5.83;5.23;;;7.4;99.9;;;;;;;;;
2020/12/12 00:53:02;;;;;;;5.83;5.23;;;7.4;99.9;;;;;;;;;
2020/12/12 00:53:07;;;;;;;5.83;5.23;;;7.4;99.9;;;;;;;;;
2020/12/12 00:53:12;;;;;;;5.83;5.23;;;7.4;99.9;;;;;;;;;
2020/12/12 00:53:28;;;;;;;5.83;5.23;;;7.4;99.9;;;;;;;;;
2020/12/12 00:53:43;;;;;;;5.83;5.23;;;7.4;99.9;;;;;;;;;
2020/12/12 00:53:53;;;;;;;6.33;5.73;;;7.4;99.9;;;;;;;;;
2020/12/12 00:54:02;;;;;;;6.33;5.73;;;7.4;99.9;;;;;;;;;
2020/12/12 00:54:09;;;;;;;6.33;5.73;;;7.4;99.9;;;;;;;;;
2020/12/12 00:54:14;;;;;;;6.33;5.73;;;7.4;99.9;;;;;;;;;
2020/12/12 00:54:29;;;;;;;6.33;5.73;;;7.4;99.9;;;;;;;;;
2020/12/12 00:54:39;;;;;;;6.33;5.73;;;7.4;99.9;;;;;;;;;
2020/12/12 00:54:55;;;;;;;6.77;5.93;;;7.3;99.9;;;;;;;;;
2020/12/12 00:55:02;;;;;;;6.77;5.93;;;7.3;99.9;;;;;;;;;
2020/12/12 00:55:10;;;;;;;6.77;5.93;;;7.3;99.9;;;;;;;;;
2020/12/12 00:55:15;;;;;;;6.77;5.93;;;7.3;99.9;;;;;;;;;
2020/12/12 00:55:25;;;;;;;6.77;5.93;;;7.3;99.9;;;;;;;;;
2020/12/12 00:55:41;;;;;;;6.77;5.93;;;7.3;99.9;;;;;;;;;
2020/12/12 00:55:56;;;;;;;6.1;5.3;;;7.4;99.9;;;;;;;;;
2020/12/12 00:56:02;;;;;;;6.1;5.3;;;7.4;99.9;;;;;;;;;
2020/12/12 00:56:06;;;;;;;6.1;5.3;;;7.4;99.9;;;;;;;;;
2020/12/12 00:56:17;;;;;;;6.1;5.3;;;7.4;99.9;;;;;;;;;
2020/12/12 00:56:27;;;;;;;6.1;5.3;;;7.4;99.9;;;;;;;;;
2020/12/12 00:56:42;;;;;;;6.1;5.3;;;7.4;99.9;;;;;;;;;
2020/12/12 00:56:53;;;;;;;6.37;5.77;;;7.4;99.9;;;;;;;;;
2020/12/12 00:57:01;;;;;;;6.37;5.77;;;7.4;99.9;;;;;;;;;
2020/12/12 00:57:08;;;;;;;6.37;5.77;;;7.4;99.9;;;;;;;;;
2020/12/12 00:57:13;;;;;;;6.37;5.77;;;7.4;99.9;;;;;;;;;
2020/12/12 00:57:28;;;;;;;6.37;5.77;;;7.4;99.9;;;;;;;;;
2020/12/12 00:57:39;;;;;;;6.37;5.77;;;7.4;99.9;;;;;;;;;
2020/12/12 00:57:54;;;;;;;5.93;5.33;;;7.4;99.9;;;;;;;;;
2020/12/12 00:58:02;;;;;;;5.93;5.33;;;7.4;99.9;;;;;;;;;
2020/12/12 00:58:09;;;;;;;5.93;5.33;;;7.4;99.9;;;;;;;;;
2020/12/12 00:58:15;;;;;;;5.93;5.33;;;7.4;99.9;;;;;;;;;
2020/12/12 00:58:30;;;;;;;5.93;5.33;;;7.4;99.9;;;;;;;;;
2020/12/12 00:58:40;;;;;;;5.93;5.33;;;7.4;99.9;;;;;;;;;
2020/12/12 00:58:55;;;;;;;6;5.4;;;7.4;99.9;;;;;;;;;
2020/12/12 00:59:02;;;;;;;6;5.4;;;7.4;99.9;;;;;;;;;
2020/12/12 00:59:06;;;;;;;6;5.4;;;7.4;99.9;;;;;;;;;
2020/12/12 00:59:18;;;;;;;6;5.4;;;7.4;99.9;;;;;;;;;
2020/12/12 00:59:26;;;;;;;6;5.4;;;7.4;99.9;;;;;;;;;
2020/12/12 00:59:42;;;;;;;6;5.4;;;7.4;99.9;;;;;;;;;
2020/12/12 00:59:52;;;;;;;6.37;5.73;;;7.5;99.9;;;;;;;;;
2020/12/12 01:00:02;;;;;;;6.37;5.73;;;7.5;99.9;;;;;;;;;
2020/12/12 01:00:07;;;;;;;6.37;5.73;;;7.5;99.9;;;;;;;;;
2020/12/12 01:00:12;;;;;;;6.37;5.73;;;7.5;99.9;;;;;;;;;
2020/12/12 01:00:32;;;;;;;6.37;5.73;;;7.5;99.9;;;;;;;;;
2020/12/12 01:00:43;;;;;;;6.37;5.73;;;7.5;99.9;;;;;;;;;
2020/12/12 01:00:54;;;;;;;6.8;5.97;;;7.4;99.9;;;;;;;;;
2020/12/12 01:01:02;;;;;;;6.8;5.97;;;7.4;99.9;;;;;;;;;
2020/12/12 01:01:09;;;;;;;6.8;5.97;;;7.4;99.9;;;;;;;;;
2020/12/12 01:01:14;;;;;;;6.8;5.97;;;7.4;99.9;;;;;;;;;
2020/12/12 01:01:29;;;;;;;6.8;5.97;;;7.4;99.9;;;;;;;;;
2020/12/12 01:01:39;;;;;;;6.8;5.97;;;7.4;99.9;;;;;;;;;
2020/12/12 01:01:55;;;;;;;6.6;5.93;;;7.5;99.9;;;;;;;;;
2020/12/12 01:02:01;;;;;;;6.6;5.93;;;7.5;99.9;;;;;;;;;
2020/12/12 01:02:05;;;;;;;6.6;5.93;;;7.5;99.9;;;;;;;;;
2020/12/12 01:02:15;;;;;;;6.6;5.93;;;7.5;99.9;;;;;;;;;
2020/12/12 01:02:25;;;;;;;6.6;5.93;;;7.5;99.9;;;;;;;;;
2020/12/12 01:02:46;;;;;;;6.6;5.93;;;7.5;99.9;;;;;;;;;
2020/12/12 01:02:56;;;;;;;6.1;5.5;;;7.7;99.9;;;;;;;;;
2020/12/12 01:03:02;;;;;;;6.1;5.5;;;7.7;99.9;;;;;;;;;
2020/12/12 01:03:06;;;;;;;6.1;5.5;;;7.7;99.9;;;;;;;;;
2020/12/12 01:03:17;;;;;;;6.1;5.5;;;7.7;99.9;;;;;;;;;
2020/12/12 01:03:27;;;;;;;6.1;5.5;;;7.7;99.9;;;;;;;;;
2020/12/12 01:03:42;;;;;;;6.1;5.5;;;7.7;99.9;;;;;;;;;
2020/12/12 01:03:52;;;;;;;6.43;5.77;;;7.7;99.9;;;;;;;;;
2020/12/12 01:04:01;;;;;;;6.43;5.77;;;7.7;99.9;;;;;;;;;
2020/12/12 01:04:08;;;;;;;6.43;5.77;;;7.7;99.9;;;;;;;;;
2020/12/12 01:04:13;;;;;;;6.43;5.77;;;7.7;99.9;;;;;;;;;
2020/12/12 01:04:28;;;;;;;6.43;5.77;;;7.7;99.9;;;;;;;;;
2020/12/12 01:04:38;;;;;;;6.43;5.77;;;7.7;99.9;;;;;;;;;
2020/12/12 01:05:00;;;;;;;7.4;6.2;;;7.8;99.9;;;;;;;;;
2020/12/12 01:05:02;;;;;;;7.4;6.2;;;7.8;99.9;;;;;;;;;
2020/12/12 01:05:09;;;;;;;7.4;6.2;;;7.8;99.9;;;;;;;;;
2020/12/12 01:05:14;;;;;;;7.4;6.2;;;7.8;99.9;;;;;;;;;
2020/12/12 01:05:31;;;;;;;7.4;6.2;;;7.8;99.9;;;;;;;;;
2020/12/12 01:05:40;;;;;;;7.4;6.2;;;7.8;99.9;;;;;;;;;
2020/12/12 01:05:55;;;;;;;6.1;5.6;;;7.8;99.9;;;;;;;;;
2020/12/12 01:06:02;;;;;;;6.1;5.6;;;7.8;99.9;;;;;;;;;
2020/12/12 01:06:06;;;;;;;6.1;5.6;;;7.8;99.9;;;;;;;;;
2020/12/12 01:06:16;;;;;;;6.1;5.6;;;7.8;99.9;;;;;;;;;
2020/12/12 01:06:26;;;;;;;6.1;5.6;;;7.8;99.9;;;;;;;;;
2020/12/12 01:06:41;;;;;;;6.1;5.6;;;7.8;99.9;;;;;;;;;
2020/12/12 01:06:52;;;;;;;5.67;5.17;;;7.8;99.9;;;;;;;;;
2020/12/12 01:07:01;;;;;;;5.67;5.17;;;7.8;99.9;;;;;;;;;
2020/12/12 01:07:12;;;;;;;5.67;5.17;;;7.8;99.9;;;;;;;;;
2020/12/12 01:07:12;;;;;;;5.67;5.17;;;7.8;99.9;;;;;;;;;
2020/12/12 01:07:28;;;;;;;5.67;5.17;;;7.8;99.9;;;;;;;;;
2020/12/12 01:07:43;;;;;;;5.67;5.17;;;7.8;99.9;;;;;;;;;
2020/12/12 01:07:53;;;;;;;6.43;5.83;;;7.8;99.9;;;;;;;;;
2020/12/12 01:08:02;;;;;;;6.43;5.83;;;7.8;99.9;;;;;;;;;
2020/12/12 01:08:08;;;;;;;6.43;5.83;;;7.8;99.9;;;;;;;;;
2020/12/12 01:08:14;;;;;;;6.43;5.83;;;7.8;99.9;;;;;;;;;
2020/12/12 01:08:29;;;;;;;6.43;5.83;;;7.8;99.9;;;;;;;;;
2020/12/12 01:08:39;;;;;;;6.43;5.83;;;7.8;99.9;;;;;;;;;
2020/12/12 01:08:54;;;;;;;6.4;5.57;;;7.8;99.9;;;;;;;;;
2020/12/12 01:09:02;;;;;;;6.4;5.57;;;7.8;99.9;;;;;;;;;
2020/12/12 01:09:05;;;;;;;6.4;5.57;;;7.8;99.9;;;;;;;;;
2020/12/12 01:09:15;;;;;;;6.4;5.57;;;7.8;99.9;;;;;;;;;
2020/12/12 01:09:25;;;;;;;6.4;5.57;;;7.8;99.9;;;;;;;;;
2020/12/12 01:09:41;;;;;;;6.4;5.57;;;7.8;99.9;;;;;;;;;
2020/12/12 01:09:56;;;;;;;6.33;5.47;;;7.8;99.9;;;;;;;;;
2020/12/12 01:10:02;;;;;;;6.33;5.47;;;7.8;99.9;;;;;;;;;
2020/12/12 01:10:06;;;;;;;6.33;5.47;;;7.8;99.9;;;;;;;;;
2020/12/12 01:10:16;;;;;;;6.33;5.47;;;7.8;99.9;;;;;;;;;
2020/12/12 01:10:27;;;;;;;6.33;5.47;;;7.8;99.9;;;;;;;;;
2020/12/12 01:10:42;;;;;;;6.33;5.47;;;7.8;99.9;;;;;;;;;
2020/12/12 01:10:52;;;;;;;5.97;5.37;;;7.8;99.9;;;;;;;;;
2020/12/12 01:11:02;;;;;;;5.97;5.37;;;7.8;99.9;;;;;;;;;
2020/12/12 01:11:08;;;;;;;5.97;5.37;;;7.8;99.9;;;;;;;;;
2020/12/12 01:11:13;;;;;;;5.97;5.37;;;7.8;99.9;;;;;;;;;
2020/12/12 01:11:28;;;;;;;5.97;5.37;;;7.8;99.9;;;;;;;;;
2020/12/12 01:11:38;;;;;;;5.97;5.37;;;7.8;99.9;;;;;;;;;
2020/12/12 01:11:54;;;;;;;6.47;5.87;;;7.8;99.9;;;;;;;;;
2020/12/12 01:12:01;;;;;;;6.47;5.87;;;7.8;99.9;;;;;;;;;
2020/12/12 01:12:09;;;;;;;6.47;5.87;;;7.8;99.9;;;;;;;;;
2020/12/12 01:12:14;;;;;;;6.47;5.87;;;7.8;99.9;;;;;;;;;
2020/12/12 01:12:30;;;;;;;6.47;5.87;;;7.8;99.9;;;;;;;;;
2020/12/12 01:12:40;;;;;;;6.47;5.87;;;7.8;99.9;;;;;;;;;
2020/12/12 01:12:55;;;;;;;7.2;5.5;;;7.9;99.9;;;;;;;;;
2020/12/12 01:13:02;;;;;;;7.2;5.5;;;7.9;99.9;;;;;;;;;
2020/12/12 01:13:05;;;;;;;7.2;5.5;;;7.9;99.9;;;;;;;;;
2020/12/12 01:13:16;;;;;;;7.2;5.5;;;7.9;99.9;;;;;;;;;
2020/12/12 01:13:26;;;;;;;7.2;5.5;;;7.9;99.9;;;;;;;;;
2020/12/12 01:13:41;;;;;;;7.2;5.5;;;7.9;99.9;;;;;;;;;
2020/12/12 01:13:51;;;;;;;6.7;5.8;;;7.9;99.9;;;;;;;;;
2020/12/12 01:14:01;;;;;;;6.7;5.8;;;7.9;99.9;;;;;;;;;
2020/12/12 01:14:07;;;;;;;6.7;5.8;;;7.9;99.9;;;;;;;;;
2020/12/12 01:14:12;;;;;;;6.7;5.8;;;7.9;99.9;;;;;;;;;
2020/12/12 01:14:27;;;;;;;6.7;5.8;;;7.9;99.9;;;;;;;;;
2020/12/12 01:14:43;;;;;;;6.7;5.8;;;7.9;99.9;;;;;;;;;
2020/12/12 01:14:53;;;;;;;5.97;5.07;;;7.8;99.9;;;;;;;;;
2020/12/12 01:15:02;;;;;;;5.97;5.07;;;7.8;99.9;;;;;;;;;
2020/12/12 01:15:08;;;;;;;5.97;5.07;;;7.8;99.9;;;;;;;;;
2020/12/12 01:15:13;;;;;;;5.97;5.07;;;7.8;99.9;;;;;;;;;
2020/12/12 01:15:29;;;;;;;5.97;5.07;;;7.8;99.9;;;;;;;;;
2020/12/12 01:15:39;;;;;;;5.97;5.07;;;7.8;99.9;;;;;;;;;
2020/12/12 01:15:54;;;;;;;6.73;5.87;;;7.6;99.9;;;;;;;;;
2020/12/12 01:16:02;;;;;;;6.73;5.87;;;7.6;99.9;;;;;;;;;
2020/12/12 01:16:05;;;;;;;6.73;5.87;;;7.6;99.9;;;;;;;;;
2020/12/12 01:16:15;;;;;;;6.73;5.87;;;7.6;99.9;;;;;;;;;
2020/12/12 01:16:25;;;;;;;6.73;5.87;;;7.6;99.9;;;;;;;;;
2020/12/12 01:16:40;;;;;;;6.73;5.87;;;7.6;99.9;;;;;;;;;
2020/12/12 01:16:56;;;;;;;6.2;5.6;;;7.7;99.9;;;;;;;;;
2020/12/12 01:17:01;;;;;;;6.2;5.6;;;7.7;99.9;;;;;;;;;
2020/12/12 01:17:06;;;;;;;6.2;5.6;;;7.7;99.9;;;;;;;;;
2020/12/12 01:17:18;;;;;;;6.2;5.6;;;7.7;99.9;;;;;;;;;